createdAt,value
2023-04-03T00:01:20.721Z,99.90
2023-04-03T00:03:48.818Z,99.90
2023-04-03T00:06:17.286Z,99.90
2023-04-03T00:08:45.698Z,99.90
2023-04-03T00:11:14.108Z,99.90
2023-04-03T00:13:43.298Z,99.90
2023-04-03T00:16:13.850Z,99.90
2023-04-03T00:18:41.999Z,99.90
2023-04-03T00:21:12.072Z,99.90
2023-04-03T00:23:40.224Z,99.90
2023-04-03T00:26:08.500Z,99.90
2023-04-03T00:28:36.858Z,99.90
2023-04-03T00:31:05.335Z,99.90
2023-04-03T00:33:34.768Z,99.90
2023-04-03T00:36:08.768Z,99.90
2023-04-03T00:38:36.976Z,99.90
2023-04-03T00:41:05.576Z,99.90
2023-04-03T00:43:34.162Z,99.90
2023-04-03T00:46:02.813Z,99.90
2023-04-03T00:48:35.609Z,99.90
2023-04-03T00:51:05.804Z,99.90
2023-04-03T00:53:37.849Z,99.90
2023-04-03T00:56:10.334Z,99.90
2023-04-03T00:58:44.710Z,99.90
2023-04-03T01:01:16.109Z,99.90
2023-04-03T01:03:45.971Z,99.90
2023-04-03T01:06:18.232Z,99.90
2023-04-03T01:08:51.665Z,99.90
2023-04-03T01:11:21.986Z,99.90
2023-04-03T01:13:51.338Z,99.90
2023-04-03T01:16:19.855Z,99.90
2023-04-03T01:18:50.516Z,99.90
2023-04-03T01:21:53.675Z,99.90
2023-04-03T01:24:34.301Z,99.90
2023-04-03T01:27:07.903Z,99.90
2023-04-03T01:29:36.293Z,99.90
2023-04-03T01:32:06.118Z,99.90
2023-04-03T01:34:34.665Z,99.90
2023-04-03T01:37:03.289Z,99.90
2023-04-03T01:39:31.352Z,99.90
2023-04-03T01:42:00.250Z,99.90
2023-04-03T01:44:32.978Z,99.90
2023-04-03T01:47:02.032Z,99.90
2023-04-03T01:49:32.407Z,99.90
2023-04-03T01:52:00.717Z,99.90
2023-04-03T01:54:28.916Z,99.90
2023-04-03T01:56:57.036Z,99.90
2023-04-03T01:59:25.305Z,99.90
2023-04-03T02:01:54.344Z,99.90
2023-04-03T02:04:22.397Z,99.90
2023-04-03T02:06:51.927Z,99.90
2023-04-03T02:09:19.981Z,99.90
2023-04-03T02:11:48.083Z,99.90
2023-04-03T02:14:16.238Z,99.90
2023-04-03T02:16:44.714Z,99.90
2023-04-03T02:19:12.815Z,99.90
2023-04-03T02:21:41.577Z,99.90
2023-04-03T02:24:11.241Z,99.90
2023-04-03T02:26:39.313Z,99.90
2023-04-03T02:29:07.534Z,99.90
2023-04-03T02:31:37.259Z,99.90
2023-04-03T02:34:06.532Z,99.90
2023-04-03T02:36:36.552Z,99.90
2023-04-03T02:39:07.911Z,99.90
2023-04-03T02:41:38.449Z,99.90
2023-04-03T02:44:13.844Z,99.90
2023-04-03T02:46:41.987Z,99.90
2023-04-03T02:49:10.055Z,99.90
2023-04-03T02:51:38.650Z,99.90
2023-04-03T02:54:06.934Z,99.90
2023-04-03T02:56:39.400Z,99.90
2023-04-03T02:59:08.037Z,99.90
2023-04-03T03:01:38.492Z,99.90
2023-04-03T03:04:06.696Z,99.90
2023-04-03T03:06:34.720Z,99.90
2023-04-03T03:09:03.010Z,99.90
2023-04-03T03:11:31.412Z,99.90
2023-04-03T03:14:00.867Z,99.90
2023-04-03T03:16:29.082Z,99.90
2023-04-03T03:18:59.066Z,99.90
2023-04-03T03:21:27.614Z,99.90
2023-04-03T03:23:55.755Z,99.90
2023-04-03T03:26:24.653Z,99.90
2023-04-03T03:28:52.908Z,99.90
2023-04-03T03:31:22.377Z,99.90
2023-04-03T03:33:51.002Z,99.90
2023-04-03T03:36:19.102Z,99.90
2023-04-03T03:38:47.220Z,99.90
2023-04-03T03:41:15.508Z,99.90
2023-04-03T03:43:45.661Z,99.90
2023-04-03T03:46:16.049Z,99.90
2023-04-03T03:48:45.845Z,99.90
2023-04-03T03:51:13.964Z,99.90
2023-04-03T03:53:42.292Z,99.90
2023-04-03T03:56:15.389Z,99.90
2023-04-03T03:58:44.266Z,99.90
2023-04-03T04:01:12.441Z,99.90
2023-04-03T04:03:46.627Z,99.90
2023-04-03T04:06:19.268Z,99.90
2023-04-03T04:08:47.942Z,99.90
2023-04-03T04:11:16.884Z,99.90
2023-04-03T04:13:47.364Z,99.90
2023-04-03T04:16:17.782Z,99.90
2023-04-03T04:18:47.298Z,99.90
2023-04-03T04:21:15.758Z,99.90
2023-04-03T04:23:44.636Z,99.90
2023-04-03T04:26:12.886Z,99.90
2023-04-03T04:28:42.048Z,99.90
2023-04-03T04:31:10.505Z,99.90
2023-04-03T04:33:38.728Z,99.90
2023-04-03T04:36:10.567Z,99.90
2023-04-03T04:38:39.689Z,99.90
2023-04-03T04:41:08.465Z,99.90
2023-04-03T04:43:37.549Z,99.90
2023-04-03T04:46:08.379Z,99.90
2023-04-03T04:48:41.881Z,99.90
2023-04-03T04:51:12.777Z,99.90
2023-04-03T04:53:41.403Z,99.90
2023-04-03T04:56:11.756Z,99.90
2023-04-03T04:58:41.345Z,99.90
2023-04-03T05:01:12.065Z,99.90
2023-04-03T05:03:49.798Z,99.90
2023-04-03T05:06:20.642Z,99.90
2023-04-03T05:08:49.277Z,99.90
2023-04-03T05:11:18.614Z,99.90
2023-04-03T05:13:49.248Z,99.90
2023-04-03T05:16:17.707Z,99.90
2023-04-03T05:18:46.194Z,99.90
2023-04-03T05:21:22.788Z,99.90
2023-04-03T05:23:52.837Z,99.90
2023-04-03T05:26:22.015Z,99.90
2023-04-03T05:28:51.837Z,99.90
2023-04-03T05:31:20.985Z,99.90
2023-04-03T05:33:49.541Z,99.90
2023-04-03T05:36:21.454Z,99.90
2023-04-03T05:38:57.091Z,99.90
2023-04-03T05:41:26.120Z,99.90
2023-04-03T05:43:54.186Z,99.90
2023-04-03T05:46:25.010Z,99.90
2023-04-03T05:48:57.043Z,99.90
2023-04-03T05:51:34.058Z,99.90
2023-04-03T05:54:13.811Z,99.90
2023-04-03T05:56:42.612Z,99.90
2023-04-03T05:59:11.028Z,99.90
2023-04-03T06:01:39.814Z,99.90
2023-04-03T06:04:10.015Z,99.90
2023-04-03T06:06:49.378Z,99.90
2023-04-03T06:09:18.269Z,99.90
2023-04-03T06:11:46.928Z,99.90
2023-04-03T06:14:16.332Z,99.90
2023-04-03T06:16:44.641Z,99.90
2023-04-03T06:19:14.002Z,99.90
2023-04-03T06:21:49.316Z,99.90
2023-04-03T06:24:18.861Z,99.90
2023-04-03T06:26:47.172Z,99.90
2023-04-03T06:29:15.655Z,99.90
2023-04-03T06:31:43.725Z,99.90
2023-04-03T06:34:12.804Z,99.90
2023-04-03T06:36:41.503Z,99.90
2023-04-03T06:39:13.829Z,99.90
2023-04-03T06:41:42.084Z,99.90
2023-04-03T06:44:12.155Z,99.90
2023-04-03T06:46:41.279Z,99.90
2023-04-03T06:49:09.736Z,99.90
2023-04-03T06:51:38.986Z,99.90
2023-04-03T06:54:09.186Z,99.90
2023-04-03T06:56:39.136Z,99.90
2023-04-03T06:59:07.215Z,99.90
2023-04-03T07:01:38.072Z,99.90
2023-04-03T07:04:06.770Z,99.90
2023-04-03T07:06:35.133Z,99.30
2023-04-03T07:09:04.533Z,98.40
2023-04-03T07:11:32.686Z,96.80
2023-04-03T07:14:02.206Z,96.20
2023-04-03T07:16:31.966Z,94.60
2023-04-03T07:19:00.535Z,93.00
2023-04-03T07:21:28.897Z,91.40
2023-04-03T07:23:57.289Z,90.70
2023-04-03T07:26:26.642Z,90.20
2023-04-03T07:28:54.718Z,87.90
2023-04-03T07:31:24.261Z,84.10
2023-04-03T07:33:52.940Z,80.50
2023-04-03T07:36:23.342Z,78.20
2023-04-03T07:38:51.562Z,75.70
2023-04-03T07:41:23.652Z,73.60
2023-04-03T07:43:51.839Z,70.70
2023-04-03T07:46:20.242Z,66.20
2023-04-03T07:48:49.762Z,62.70
2023-04-03T07:51:18.225Z,58.00
2023-04-03T07:53:46.470Z,57.00
2023-04-03T07:56:14.556Z,56.40
2023-04-03T07:58:42.835Z,57.50
2023-04-03T08:01:12.405Z,56.70
2023-04-03T08:03:41.015Z,55.00
2023-04-03T08:06:15.656Z,53.20
2023-04-03T08:08:44.960Z,53.60
2023-04-03T08:11:14.063Z,52.90
2023-04-03T08:13:42.503Z,51.50
2023-04-03T08:16:12.798Z,49.40
2023-04-03T08:18:41.362Z,48.10
2023-04-03T08:21:12.230Z,47.90
2023-04-03T08:23:42.236Z,47.50
2023-04-03T08:26:11.894Z,45.80
2023-04-03T08:28:40.633Z,45.00
2023-04-03T08:31:12.196Z,43.00
2023-04-03T08:33:41.228Z,43.50
2023-04-03T08:36:19.986Z,43.90
2023-04-03T08:38:48.152Z,41.60
2023-04-03T08:41:21.460Z,40.40
2023-04-03T08:44:00.343Z,39.60
2023-04-03T08:46:40.055Z,37.20
2023-04-03T08:49:18.623Z,38.40
2023-04-03T08:51:51.933Z,36.60
2023-04-03T08:54:27.826Z,37.20
2023-04-03T08:56:57.170Z,37.10
2023-04-03T08:59:31.471Z,35.10
2023-04-03T09:02:03.402Z,34.10
2023-04-03T09:04:34.491Z,32.80
2023-04-03T09:07:09.444Z,31.10
2023-04-03T09:09:42.097Z,31.30
2023-04-03T09:12:19.322Z,31.70
2023-04-03T09:14:58.042Z,32.10
2023-04-03T09:17:39.352Z,30.90
2023-04-03T09:20:20.951Z,30.80
2023-04-03T09:22:53.958Z,30.90
2023-04-03T09:25:24.852Z,28.60
2023-04-03T09:27:54.693Z,28.50
2023-04-03T09:30:24.731Z,29.20
2023-04-03T09:32:55.855Z,29.60
2023-04-03T09:35:36.390Z,28.50
2023-04-03T09:38:22.162Z,28.00
2023-04-03T09:40:53.718Z,28.00
2023-04-03T09:43:28.344Z,30.20
2023-04-03T09:45:57.681Z,27.50
2023-04-03T09:48:27.505Z,26.70
2023-04-03T09:51:00.330Z,27.60
2023-04-03T09:53:37.800Z,27.90
2023-04-03T09:56:22.868Z,27.70
2023-04-03T09:58:52.968Z,27.60
2023-04-03T10:01:28.595Z,26.10
2023-04-03T10:04:08.769Z,26.40
2023-04-03T10:06:43.814Z,27.10
2023-04-03T10:09:22.642Z,26.80
2023-04-03T10:12:06.622Z,26.90
2023-04-03T10:14:35.559Z,26.40
2023-04-03T10:17:25.621Z,26.30
2023-04-03T10:19:58.491Z,25.10
2023-04-03T10:22:39.363Z,25.20
2023-04-03T10:25:16.991Z,25.30
2023-04-03T10:27:55.887Z,25.30
2023-04-03T10:30:34.667Z,24.90
2023-04-03T10:33:37.977Z,23.60
2023-04-03T10:36:19.642Z,22.90
2023-04-03T10:38:58.017Z,21.60
2023-04-03T10:41:36.446Z,21.70
2023-04-03T10:44:16.930Z,21.50
2023-04-03T10:46:49.725Z,21.20
2023-04-03T10:49:29.850Z,20.90
2023-04-03T10:52:08.199Z,20.40
2023-04-03T10:54:40.894Z,20.20
2023-04-03T10:57:14.006Z,20.70
2023-04-03T10:59:46.449Z,20.00
2023-04-03T11:02:24.019Z,19.60
2023-04-03T11:04:55.761Z,19.50
2023-04-03T11:07:27.770Z,19.00
2023-04-03T11:10:00.798Z,18.70
2023-04-03T11:12:35.633Z,19.50
2023-04-03T11:15:05.868Z,19.20
2023-04-03T11:17:39.276Z,19.40
2023-04-03T11:20:17.667Z,18.90
2023-04-03T11:22:49.204Z,19.60
2023-04-03T11:25:23.357Z,19.10
2023-04-03T11:27:58.661Z,18.60
2023-04-03T11:30:32.550Z,18.80
2023-04-03T11:33:30.560Z,18.60
2023-04-03T11:36:07.345Z,18.30
2023-04-03T11:38:46.707Z,18.60
2023-04-03T11:41:29.953Z,19.40
2023-04-03T11:44:02.578Z,18.90
2023-04-03T11:46:57.003Z,18.70
2023-04-03T11:49:55.089Z,18.80
2023-04-03T11:52:57.041Z,18.40
2023-04-03T11:55:47.656Z,18.20
2023-04-03T11:58:18.374Z,18.50
2023-04-03T12:00:54.784Z,18.40
2023-04-03T12:04:01.980Z,18.20
2023-04-03T12:07:11.786Z,18.00
2023-04-03T12:10:31.006Z,18.60
2023-04-03T12:13:04.764Z,19.30
2023-04-03T12:15:51.651Z,18.90
2023-04-03T12:18:56.434Z,18.90
2023-04-03T12:21:25.812Z,18.00
2023-04-03T12:24:06.867Z,17.70
2023-04-03T12:26:48.740Z,17.80
2023-04-03T12:29:22.450Z,18.30
2023-04-03T12:32:08.456Z,18.40
2023-04-03T12:34:57.972Z,18.60
2023-04-03T12:37:45.295Z,18.40
2023-04-03T12:40:22.846Z,17.90
2023-04-03T12:43:11.166Z,18.40
2023-04-03T12:45:48.624Z,18.30
2023-04-03T12:48:19.332Z,18.60
2023-04-03T12:50:49.838Z,18.00
2023-04-03T12:53:21.488Z,18.70
2023-04-03T12:55:49.581Z,18.40
2023-04-03T12:58:23.522Z,18.40
2023-04-03T13:01:02.865Z,18.20
2023-04-03T13:03:32.335Z,18.70
2023-04-03T13:06:04.741Z,18.10
2023-04-03T13:08:33.445Z,18.00
2023-04-03T13:11:05.053Z,17.70
2023-04-03T13:13:33.693Z,17.70
2023-04-03T13:16:02.016Z,18.20
2023-04-03T13:18:33.234Z,18.00
2023-04-03T13:21:07.048Z,18.10
2023-04-03T13:23:38.185Z,18.10
2023-04-03T13:26:07.552Z,18.10
2023-04-03T13:28:36.603Z,19.20
2023-04-03T13:31:11.443Z,18.90
2023-04-03T13:33:39.990Z,19.40
2023-04-03T13:36:19.393Z,19.70
2023-04-03T13:38:47.756Z,20.00
2023-04-03T13:41:34.336Z,19.80
2023-04-03T13:44:19.004Z,19.40
2023-04-03T13:46:47.434Z,19.20
2023-04-03T13:49:33.293Z,19.00
2023-04-03T13:52:21.134Z,19.40
2023-04-03T13:54:53.661Z,19.00
2023-04-03T13:57:22.211Z,19.30
2023-04-03T13:59:50.876Z,20.60
2023-04-03T14:02:22.895Z,21.20
2023-04-03T14:04:57.249Z,22.70
2023-04-03T14:07:27.394Z,22.50
2023-04-03T14:09:56.002Z,24.00
2023-04-03T14:12:32.387Z,25.00
2023-04-03T14:15:02.690Z,27.10
2023-04-03T14:17:33.442Z,28.00
2023-04-03T14:20:01.950Z,27.20
2023-04-03T14:22:34.803Z,27.00
2023-04-03T14:25:03.174Z,28.20
2023-04-03T14:27:35.402Z,27.40
2023-04-03T14:30:04.978Z,27.80
2023-04-03T14:32:33.235Z,28.50
2023-04-03T14:35:01.834Z,28.90
2023-04-03T14:37:32.717Z,29.50
2023-04-03T14:40:02.534Z,30.30
2023-04-03T14:42:33.321Z,31.90
2023-04-03T14:45:03.602Z,32.50
2023-04-03T14:47:32.775Z,31.90
2023-04-03T14:50:02.162Z,31.70
2023-04-03T14:52:35.120Z,31.90
2023-04-03T14:55:04.895Z,32.90
2023-04-03T14:57:33.684Z,32.60
2023-04-03T15:00:03.682Z,31.70
2023-04-03T15:02:34.701Z,32.80
2023-04-03T15:05:05.076Z,33.00
2023-04-03T15:07:37.248Z,35.20
2023-04-03T15:10:17.288Z,34.80
2023-04-03T15:12:46.342Z,33.60
2023-04-03T15:15:15.301Z,33.20
2023-04-03T15:17:44.249Z,34.30
2023-04-03T15:20:15.619Z,35.60
2023-04-03T15:22:45.306Z,37.60
2023-04-03T15:25:13.663Z,36.10
2023-04-03T15:27:42.543Z,34.90
2023-04-03T15:30:16.719Z,37.00
2023-04-03T15:32:44.940Z,35.70
2023-04-03T15:35:13.092Z,34.40
2023-04-03T15:37:41.571Z,35.80
2023-04-03T15:40:11.791Z,36.90
2023-04-03T15:42:40.939Z,36.60
2023-04-03T15:45:10.578Z,35.90
2023-04-03T15:47:38.936Z,36.50
2023-04-03T15:50:08.974Z,37.10
2023-04-03T15:52:37.486Z,36.80
2023-04-03T15:55:06.982Z,37.00
2023-04-03T16:00:10.891Z,36.70
2023-04-03T16:02:38.992Z,37.00
2023-04-03T16:05:08.165Z,36.90
2023-04-03T16:07:36.649Z,39.60
2023-04-03T16:10:05.198Z,41.00
2023-04-03T16:12:33.321Z,41.30
2023-04-03T16:15:03.080Z,43.80
2023-04-03T16:17:31.941Z,40.70
2023-04-03T16:20:00.685Z,40.20
2023-04-03T16:22:30.542Z,39.10
2023-04-03T16:24:58.598Z,39.50
2023-04-03T16:27:28.456Z,41.30
2023-04-03T16:29:56.787Z,41.60
2023-04-03T16:32:28.589Z,41.40
2023-04-03T16:34:57.010Z,43.50
2023-04-03T16:37:26.550Z,43.40
2023-04-03T16:39:55.612Z,44.50
2023-04-03T16:42:23.623Z,43.30
2023-04-03T16:44:53.605Z,42.00
2023-04-03T16:47:21.618Z,43.50
2023-04-03T16:49:51.239Z,42.20
2023-04-03T16:52:19.484Z,42.70
2023-04-03T16:54:47.914Z,42.10
2023-04-03T16:57:15.973Z,42.40
2023-04-03T16:59:44.143Z,43.80
2023-04-03T17:02:12.348Z,43.50
2023-04-03T17:04:40.729Z,44.10
2023-04-03T17:07:10.250Z,44.30
2023-04-03T17:09:38.961Z,46.10
2023-04-03T17:12:07.236Z,44.60
2023-04-03T17:14:35.526Z,44.10
2023-04-03T17:17:04.494Z,44.40
2023-04-03T17:19:32.823Z,44.10
2023-04-03T17:22:01.230Z,44.30
2023-04-03T17:24:32.020Z,44.70
2023-04-03T17:27:00.319Z,45.50
2023-04-03T17:29:28.515Z,45.20
2023-04-03T17:31:59.677Z,45.70
2023-04-03T17:34:27.870Z,45.20
2023-04-03T17:36:56.100Z,46.00
2023-04-03T17:39:24.302Z,48.60
2023-04-03T17:41:54.950Z,47.70
2023-04-03T17:44:23.842Z,49.10
2023-04-03T17:46:53.949Z,47.80
2023-04-03T17:49:22.435Z,49.00
2023-04-03T17:51:50.780Z,48.40
2023-04-03T17:54:18.897Z,48.20
2023-04-03T17:56:48.337Z,48.00
2023-04-03T17:59:19.266Z,48.50
2023-04-03T18:01:48.079Z,47.90
2023-04-03T18:04:16.694Z,47.90
2023-04-03T18:06:48.124Z,48.20
2023-04-03T18:09:19.516Z,48.50
2023-04-03T18:11:49.186Z,48.80
2023-04-03T18:14:20.800Z,49.10
2023-04-03T18:16:48.976Z,49.70
2023-04-03T18:19:23.383Z,50.20
2023-04-03T18:21:52.439Z,50.10
2023-04-03T18:24:23.160Z,51.00
2023-04-03T18:26:56.278Z,50.40
2023-04-03T18:29:26.203Z,50.60
2023-04-03T18:31:56.770Z,50.40
2023-04-03T18:34:24.959Z,50.60
2023-04-03T18:36:53.630Z,50.60
2023-04-03T18:39:23.346Z,51.50
2023-04-03T18:41:53.836Z,50.80
2023-04-03T18:44:26.684Z,51.30
2023-04-03T18:46:56.681Z,51.70
2023-04-03T18:49:25.493Z,51.70
2023-04-03T18:51:53.738Z,52.50
2023-04-03T18:54:21.879Z,52.60
2023-04-03T18:56:50.046Z,53.20
2023-04-03T18:59:18.331Z,53.70
2023-04-03T19:01:47.786Z,54.30
2023-04-03T19:04:18.014Z,54.20
2023-04-03T19:06:46.322Z,54.70
2023-04-03T19:09:14.611Z,54.10
2023-04-03T19:11:42.847Z,53.80
2023-04-03T19:14:16.822Z,53.80
2023-04-03T19:16:47.077Z,54.10
2023-04-03T19:19:15.404Z,54.20
2023-04-03T19:21:43.566Z,54.30
2023-04-03T19:24:13.366Z,54.30
2023-04-03T19:26:42.054Z,55.10
2023-04-03T19:29:10.349Z,55.40
2023-04-03T19:31:39.179Z,55.60
2023-04-03T19:34:09.031Z,55.60
2023-04-03T19:36:37.699Z,55.70
2023-04-03T19:39:06.881Z,56.00
2023-04-03T19:41:38.722Z,56.10
2023-04-03T19:44:08.217Z,56.90
2023-04-03T19:46:37.272Z,57.60
2023-04-03T19:49:06.061Z,57.30
2023-04-03T19:51:35.875Z,57.80
2023-04-03T19:54:05.934Z,58.70
2023-04-03T19:56:34.006Z,58.20
2023-04-03T19:59:02.057Z,59.10
2023-04-03T20:01:30.954Z,59.00
2023-04-03T20:03:59.321Z,59.00
2023-04-03T20:06:27.494Z,59.20
2023-04-03T20:08:56.915Z,59.20
2023-04-03T20:11:26.576Z,59.40
2023-04-03T20:13:56.361Z,59.30
2023-04-03T20:16:28.177Z,59.00
2023-04-03T20:18:56.817Z,59.20
2023-04-03T20:21:29.851Z,59.40
2023-04-03T20:23:59.738Z,59.20
2023-04-03T20:26:29.694Z,60.00
2023-04-03T20:29:00.078Z,60.00
2023-04-03T20:31:29.986Z,60.30
2023-04-03T20:33:58.138Z,60.30
2023-04-03T20:36:28.377Z,60.40
2023-04-03T20:38:57.549Z,60.40
2023-04-03T20:41:27.623Z,60.40
2023-04-03T20:43:55.727Z,60.50
2023-04-03T20:46:34.874Z,60.80
2023-04-03T20:49:11.088Z,61.20
2023-04-03T20:51:42.063Z,61.30
2023-04-03T20:54:10.582Z,61.80
2023-04-03T20:56:40.320Z,62.30
2023-04-03T20:59:09.646Z,62.50
2023-04-03T21:01:37.919Z,63.60
2023-04-03T21:04:13.276Z,63.60
2023-04-03T21:07:18.883Z,63.70
2023-04-03T21:10:24.834Z,63.80
2023-04-03T21:13:30.191Z,64.00
2023-04-03T21:16:00.236Z,64.30
2023-04-03T21:18:43.402Z,65.00
2023-04-03T21:21:20.641Z,65.40
2023-04-03T21:23:49.488Z,66.00
2023-04-03T21:26:18.331Z,66.00
2023-04-03T21:28:47.345Z,66.40
2023-04-03T21:31:15.506Z,66.90
2023-04-03T21:33:45.196Z,67.30
2023-04-03T21:36:13.488Z,67.90
2023-04-03T21:38:41.640Z,68.20
2023-04-03T21:41:09.730Z,68.30
2023-04-03T21:43:38.045Z,69.00
2023-04-03T21:46:06.548Z,69.60
2023-04-03T21:48:36.740Z,70.00
2023-04-03T21:51:07.222Z,71.00
2023-04-03T21:53:36.039Z,71.40
2023-04-03T21:56:04.160Z,71.50
2023-04-03T21:58:33.037Z,72.30
2023-04-03T22:01:09.976Z,73.00
2023-04-03T22:03:38.368Z,72.90
2023-04-03T22:06:08.278Z,73.20
2023-04-03T22:08:36.814Z,73.70
2023-04-03T22:11:06.060Z,74.30
2023-04-03T22:13:34.447Z,74.60
2023-04-03T22:16:02.742Z,75.10
2023-04-03T22:18:31.782Z,75.90
2023-04-03T22:20:59.858Z,76.20
2023-04-03T22:23:29.452Z,76.50
2023-04-03T22:26:05.350Z,76.70
2023-04-03T22:28:35.001Z,76.90
2023-04-03T22:31:03.808Z,77.10
2023-04-03T22:33:34.561Z,78.30
2023-04-03T22:36:03.026Z,79.10
2023-04-03T22:38:32.759Z,78.80
2023-04-03T22:41:02.702Z,79.40
2023-04-03T22:43:32.627Z,80.10
2023-04-03T22:46:02.207Z,80.50
2023-04-03T22:48:30.946Z,80.80
2023-04-03T22:51:00.023Z,81.20
2023-04-03T22:53:28.371Z,81.40
2023-04-03T22:55:58.733Z,81.70
2023-04-03T22:58:27.723Z,82.10
2023-04-03T23:01:06.630Z,82.30
2023-04-03T23:03:35.932Z,83.30
2023-04-03T23:06:04.483Z,83.10
2023-04-03T23:08:34.551Z,84.10
2023-04-03T23:11:04.084Z,84.10
2023-04-03T23:13:32.362Z,85.80
2023-04-03T23:16:02.423Z,85.20
2023-04-03T23:18:31.814Z,85.80
2023-04-03T23:21:01.150Z,86.00
2023-04-03T23:23:29.502Z,86.70
2023-04-03T23:25:59.364Z,87.60
2023-04-03T23:28:29.678Z,87.70
2023-04-03T23:31:01.296Z,87.90
2023-04-03T23:33:30.712Z,88.20
2023-04-03T23:35:59.379Z,88.60
2023-04-03T23:38:27.902Z,89.20
2023-04-03T23:40:55.983Z,89.70
2023-04-03T23:43:24.338Z,90.00
2023-04-03T23:45:53.771Z,90.40
2023-04-03T23:48:22.770Z,90.30
2023-04-03T23:50:50.800Z,90.50
2023-04-03T23:53:19.143Z,90.60
2023-04-03T23:55:47.218Z,90.80
2023-04-03T23:58:15.929Z,91.00
